sensor_id;sensor_type;location;lat;lon;timestamp;P1;durP1;ratioP1;P2;durP2;ratioP2
53931;SDS011;39844;52.496;13.482;2024-01-07T00:00:10;1.60;;;1.50;;
53931;SDS011;39844;52.496;13.482;2024-01-07T00:02:36;4.17;;;1.73;;
53931;SDS011;39844;52.496;13.482;2024-01-07T00:05:01;1.50;;;1.50;;
53931;SDS011;39844;52.496;13.482;2024-01-07T00:07:27;3.27;;;1.90;;
53931;SDS011;39844;52.496;13.482;2024-01-07T00:09:52;2.57;;;2.20;;
53931;SDS011;39844;52.496;13.482;2024-01-07T00:12:17;1.77;;;1.67;;
53931;SDS011;39844;52.496;13.482;2024-01-07T00:14:43;4.20;;;1.53;;
53931;SDS011;39844;52.496;13.482;2024-01-07T00:17:09;1.80;;;1.70;;
53931;SDS011;39844;52.496;13.482;2024-01-07T00:19:35;1.90;;;1.80;;
53931;SDS011;39844;52.496;13.482;2024-01-07T00:22:00;2.13;;;1.80;;
53931;SDS011;39844;52.496;13.482;2024-01-07T00:24:26;2.07;;;1.97;;
53931;SDS011;39844;52.496;13.482;2024-01-07T00:26:53;1.77;;;1.67;;
53931;SDS011;39844;52.496;13.482;2024-01-07T00:29:18;1.20;;;1.20;;
53931;SDS011;39844;52.496;13.482;2024-01-07T00:31:44;1.60;;;1.43;;
53931;SDS011;39844;52.496;13.482;2024-01-07T00:34:09;2.03;;;1.27;;
53931;SDS011;39844;52.496;13.482;2024-01-07T00:36:34;2.37;;;1.50;;
53931;SDS011;39844;52.496;13.482;2024-01-07T00:38:59;1.80;;;1.70;;
53931;SDS011;39844;52.496;13.482;2024-01-07T00:41:25;1.70;;;1.60;;
53931;SDS011;39844;52.496;13.482;2024-01-07T00:43:50;1.67;;;1.57;;
53931;SDS011;39844;52.496;13.482;2024-01-07T00:46:15;2.23;;;1.97;;
53931;SDS011;39844;52.496;13.482;2024-01-07T00:48:41;1.20;;;1.20;;
53931;SDS011;39844;52.496;13.482;2024-01-07T00:51:06;5.83;;;2.50;;
53931;SDS011;39844;52.496;13.482;2024-01-07T00:53:31;5.33;;;1.67;;
53931;SDS011;39844;52.496;13.482;2024-01-07T00:55:56;1.40;;;1.30;;
53931;SDS011;39844;52.496;13.482;2024-01-07T00:58:22;1.70;;;1.47;;
53931;SDS011;39844;52.496;13.482;2024-01-07T01:00:47;2.37;;;1.37;;
53931;SDS011;39844;52.496;13.482;2024-01-07T01:03:12;1.27;;;1.27;;
53931;SDS011;39844;52.496;13.482;2024-01-07T01:05:38;3.70;;;2.40;;
53931;SDS011;39844;52.496;13.482;2024-01-07T01:08:03;1.20;;;1.20;;
53931;SDS011;39844;52.496;13.482;2024-01-07T01:10:29;3.03;;;1.63;;
53931;SDS011;39844;52.496;13.482;2024-01-07T01:12:54;2.40;;;1.30;;
53931;SDS011;39844;52.496;13.482;2024-01-07T01:15:19;1.60;;;1.10;;
53931;SDS011;39844;52.496;13.482;2024-01-07T01:17:45;4.30;;;1.50;;
53931;SDS011;39844;52.496;13.482;2024-01-07T01:20:10;1.20;;;1.20;;
53931;SDS011;39844;52.496;13.482;2024-01-07T01:22:36;1.37;;;1.27;;
53931;SDS011;39844;52.496;13.482;2024-01-07T01:25:01;0.97;;;0.97;;
53931;SDS011;39844;52.496;13.482;2024-01-07T01:27:26;1.13;;;1.13;;
53931;SDS011;39844;52.496;13.482;2024-01-07T01:29:52;1.60;;;1.50;;
53931;SDS011;39844;52.496;13.482;2024-01-07T01:32:17;1.20;;;1.10;;
53931;SDS011;39844;52.496;13.482;2024-01-07T01:34:42;1.20;;;1.20;;
53931;SDS011;39844;52.496;13.482;2024-01-07T01:37:08;1.53;;;1.37;;
53931;SDS011;39844;52.496;13.482;2024-01-07T01:39:34;1.10;;;1.10;;
53931;SDS011;39844;52.496;13.482;2024-01-07T01:41:59;1.30;;;1.30;;
53931;SDS011;39844;52.496;13.482;2024-01-07T01:44:24;1.27;;;1.27;;
53931;SDS011;39844;52.496;13.482;2024-01-07T01:46:50;1.63;;;1.50;;
53931;SDS011;39844;52.496;13.482;2024-01-07T01:49:15;1.23;;;1.23;;
53931;SDS011;39844;52.496;13.482;2024-01-07T01:51:41;1.30;;;1.30;;
53931;SDS011;39844;52.496;13.482;2024-01-07T01:54:07;1.60;;;1.50;;
53931;SDS011;39844;52.496;13.482;2024-01-07T01:56:32;2.00;;;1.27;;
53931;SDS011;39844;52.496;13.482;2024-01-07T01:58:58;1.40;;;1.40;;
53931;SDS011;39844;52.496;13.482;2024-01-07T02:01:24;1.53;;;1.43;;
53931;SDS011;39844;52.496;13.482;2024-01-07T02:03:49;3.83;;;1.77;;
53931;SDS011;39844;52.496;13.482;2024-01-07T02:06:15;2.40;;;1.40;;
53931;SDS011;39844;52.496;13.482;2024-01-07T02:08:41;1.67;;;1.57;;
53931;SDS011;39844;52.496;13.482;2024-01-07T02:11:19;1.43;;;1.40;;
53931;SDS011;39844;52.496;13.482;2024-01-07T02:13:46;2.57;;;1.30;;
53931;SDS011;39844;52.496;13.482;2024-01-07T02:16:11;2.03;;;1.53;;
53931;SDS011;39844;52.496;13.482;2024-01-07T02:18:38;1.43;;;1.33;;
53931;SDS011;39844;52.496;13.482;2024-01-07T02:21:06;1.53;;;1.30;;
53931;SDS011;39844;52.496;13.482;2024-01-07T02:23:32;1.63;;;1.53;;
53931;SDS011;39844;52.496;13.482;2024-01-07T02:25:57;5.83;;;1.60;;
53931;SDS011;39844;52.496;13.482;2024-01-07T02:28:23;1.73;;;1.63;;
53931;SDS011;39844;52.496;13.482;2024-01-07T02:30:48;1.63;;;1.53;;
53931;SDS011;39844;52.496;13.482;2024-01-07T02:33:13;1.00;;;1.00;;
53931;SDS011;39844;52.496;13.482;2024-01-07T02:35:38;1.33;;;1.27;;
53931;SDS011;39844;52.496;13.482;2024-01-07T02:38:04;2.87;;;1.30;;
53931;SDS011;39844;52.496;13.482;2024-01-07T02:40:29;1.20;;;1.20;;
53931;SDS011;39844;52.496;13.482;2024-01-07T02:42:54;1.60;;;1.50;;
53931;SDS011;39844;52.496;13.482;2024-01-07T02:45:20;2.10;;;1.57;;
53931;SDS011;39844;52.496;13.482;2024-01-07T02:47:45;1.13;;;1.13;;
53931;SDS011;39844;52.496;13.482;2024-01-07T02:50:10;1.13;;;1.13;;
53931;SDS011;39844;52.496;13.482;2024-01-07T02:52:36;2.10;;;1.30;;
53931;SDS011;39844;52.496;13.482;2024-01-07T02:55:01;1.27;;;1.20;;
53931;SDS011;39844;52.496;13.482;2024-01-07T02:57:26;1.20;;;1.10;;
53931;SDS011;39844;52.496;13.482;2024-01-07T02:59:52;1.10;;;1.10;;
53931;SDS011;39844;52.496;13.482;2024-01-07T03:02:17;0.90;;;0.90;;
53931;SDS011;39844;52.496;13.482;2024-01-07T03:04:43;1.60;;;1.50;;
53931;SDS011;39844;52.496;13.482;2024-01-07T03:07:08;2.60;;;1.70;;
53931;SDS011;39844;52.496;13.482;2024-01-07T03:09:33;1.17;;;1.17;;
53931;SDS011;39844;52.496;13.482;2024-01-07T03:11:59;1.33;;;1.33;;
53931;SDS011;39844;52.496;13.482;2024-01-07T03:14:24;1.20;;;1.20;;
53931;SDS011;39844;52.496;13.482;2024-01-07T03:16:49;2.10;;;1.67;;
53931;SDS011;39844;52.496;13.482;2024-01-07T03:19:15;1.53;;;1.43;;
53931;SDS011;39844;52.496;13.482;2024-01-07T03:21:40;1.87;;;1.27;;
53931;SDS011;39844;52.496;13.482;2024-01-07T03:24:05;1.80;;;1.30;;
53931;SDS011;39844;52.496;13.482;2024-01-07T03:26:31;1.20;;;1.20;;
53931;SDS011;39844;52.496;13.482;2024-01-07T03:28:57;1.33;;;1.33;;
53931;SDS011;39844;52.496;13.482;2024-01-07T03:31:22;1.17;;;1.17;;
53931;SDS011;39844;52.496;13.482;2024-01-07T03:33:48;1.20;;;1.20;;
53931;SDS011;39844;52.496;13.482;2024-01-07T03:36:13;1.17;;;1.13;;
53931;SDS011;39844;52.496;13.482;2024-01-07T03:38:39;1.30;;;1.30;;
53931;SDS011;39844;52.496;13.482;2024-01-07T03:41:05;1.40;;;1.07;;
53931;SDS011;39844;52.496;13.482;2024-01-07T03:43:31;1.40;;;1.30;;
53931;SDS011;39844;52.496;13.482;2024-01-07T03:45:56;1.10;;;1.10;;
53931;SDS011;39844;52.496;13.482;2024-01-07T03:48:22;1.30;;;1.30;;
53931;SDS011;39844;52.496;13.482;2024-01-07T03:50:47;2.13;;;1.50;;
53931;SDS011;39844;52.496;13.482;2024-01-07T03:53:13;1.90;;;1.60;;
53931;SDS011;39844;52.496;13.482;2024-01-07T03:55:38;1.30;;;1.30;;
53931;SDS011;39844;52.496;13.482;2024-01-07T03:58:04;2.43;;;1.07;;
53931;SDS011;39844;52.496;13.482;2024-01-07T04:00:30;1.67;;;1.57;;
53931;SDS011;39844;52.496;13.482;2024-01-07T04:02:55;1.43;;;1.40;;
53931;SDS011;39844;52.496;13.482;2024-01-07T04:05:20;1.37;;;1.37;;
53931;SDS011;39844;52.496;13.482;2024-01-07T04:07:46;1.60;;;1.50;;
53931;SDS011;39844;52.496;13.482;2024-01-07T04:10:11;1.20;;;1.20;;
53931;SDS011;39844;52.496;13.482;2024-01-07T04:12:36;1.30;;;1.20;;
53931;SDS011;39844;52.496;13.482;2024-01-07T04:15:02;1.57;;;1.43;;
53931;SDS011;39844;52.496;13.482;2024-01-07T04:17:28;1.40;;;1.30;;
53931;SDS011;39844;52.496;13.482;2024-01-07T04:19:54;0.90;;;0.90;;
53931;SDS011;39844;52.496;13.482;2024-01-07T04:22:19;1.30;;;1.20;;
53931;SDS011;39844;52.496;13.482;2024-01-07T04:24:45;1.33;;;1.33;;
53931;SDS011;39844;52.496;13.482;2024-01-07T04:27:10;1.17;;;1.17;;
53931;SDS011;39844;52.496;13.482;2024-01-07T04:29:35;1.10;;;1.10;;
53931;SDS011;39844;52.496;13.482;2024-01-07T04:32:00;2.33;;;1.20;;
53931;SDS011;39844;52.496;13.482;2024-01-07T04:34:26;1.20;;;1.20;;
53931;SDS011;39844;52.496;13.482;2024-01-07T04:36:51;1.40;;;1.40;;
53931;SDS011;39844;52.496;13.482;2024-01-07T04:39:16;1.80;;;1.70;;
53931;SDS011;39844;52.496;13.482;2024-01-07T04:41:42;1.33;;;1.30;;
53931;SDS011;39844;52.496;13.482;2024-01-07T04:44:07;3.37;;;1.53;;
53931;SDS011;39844;52.496;13.482;2024-01-07T04:46:38;1.33;;;1.33;;
53931;SDS011;39844;52.496;13.482;2024-01-07T04:49:04;1.50;;;1.40;;
53931;SDS011;39844;52.496;13.482;2024-01-07T04:51:30;1.97;;;1.87;;
53931;SDS011;39844;52.496;13.482;2024-01-07T04:53:55;1.10;;;1.10;;
53931;SDS011;39844;52.496;13.482;2024-01-07T04:56:21;1.20;;;1.20;;
53931;SDS011;39844;52.496;13.482;2024-01-07T04:58:46;1.20;;;1.20;;
53931;SDS011;39844;52.496;13.482;2024-01-07T05:01:11;1.50;;;1.47;;
53931;SDS011;39844;52.496;13.482;2024-01-07T05:03:37;1.60;;;1.50;;
53931;SDS011;39844;52.496;13.482;2024-01-07T05:06:02;1.47;;;1.40;;
53931;SDS011;39844;52.496;13.482;2024-01-07T05:08:27;1.30;;;1.30;;
53931;SDS011;39844;52.496;13.482;2024-01-07T05:10:53;2.33;;;1.40;;
53931;SDS011;39844;52.496;13.482;2024-01-07T05:13:18;1.13;;;1.13;;
53931;SDS011;39844;52.496;13.482;2024-01-07T05:15:43;1.30;;;1.30;;
53931;SDS011;39844;52.496;13.482;2024-01-07T05:18:08;1.30;;;1.27;;
53931;SDS011;39844;52.496;13.482;2024-01-07T05:20:34;1.73;;;1.53;;
53931;SDS011;39844;52.496;13.482;2024-01-07T05:22:59;1.10;;;1.10;;
53931;SDS011;39844;52.496;13.482;2024-01-07T05:25:24;1.20;;;1.20;;
53931;SDS011;39844;52.496;13.482;2024-01-07T05:27:50;2.07;;;1.33;;
53931;SDS011;39844;52.496;13.482;2024-01-07T05:30:15;1.10;;;1.10;;
53931;SDS011;39844;52.496;13.482;2024-01-07T05:32:40;1.40;;;1.40;;
53931;SDS011;39844;52.496;13.482;2024-01-07T05:35:05;1.30;;;1.30;;
53931;SDS011;39844;52.496;13.482;2024-01-07T05:37:31;2.03;;;1.33;;
53931;SDS011;39844;52.496;13.482;2024-01-07T05:39:56;1.20;;;1.20;;
53931;SDS011;39844;52.496;13.482;2024-01-07T05:42:22;1.33;;;1.33;;
53931;SDS011;39844;52.496;13.482;2024-01-07T05:44:47;1.20;;;1.20;;
53931;SDS011;39844;52.496;13.482;2024-01-07T05:47:13;1.70;;;1.60;;
53931;SDS011;39844;52.496;13.482;2024-01-07T05:49:38;1.33;;;1.30;;
53931;SDS011;39844;52.496;13.482;2024-01-07T05:52:04;2.00;;;1.30;;
53931;SDS011;39844;52.496;13.482;2024-01-07T05:54:29;1.40;;;1.40;;
53931;SDS011;39844;52.496;13.482;2024-01-07T05:56:54;1.10;;;1.10;;
53931;SDS011;39844;52.496;13.482;2024-01-07T05:59:20;1.10;;;1.10;;
53931;SDS011;39844;52.496;13.482;2024-01-07T06:01:45;1.70;;;1.43;;
53931;SDS011;39844;52.496;13.482;2024-01-07T06:04:10;3.50;;;1.70;;
53931;SDS011;39844;52.496;13.482;2024-01-07T06:06:36;2.00;;;1.83;;
53931;SDS011;39844;52.496;13.482;2024-01-07T06:09:01;2.23;;;1.60;;
53931;SDS011;39844;52.496;13.482;2024-01-07T06:11:27;1.77;;;1.53;;
53931;SDS011;39844;52.496;13.482;2024-01-07T06:13:52;1.40;;;1.40;;
53931;SDS011;39844;52.496;13.482;2024-01-07T06:16:17;1.03;;;1.03;;
53931;SDS011;39844;52.496;13.482;2024-01-07T06:18:43;1.20;;;1.20;;
53931;SDS011;39844;52.496;13.482;2024-01-07T06:21:08;1.23;;;1.23;;
53931;SDS011;39844;52.496;13.482;2024-01-07T06:23:33;1.60;;;1.53;;
53931;SDS011;39844;52.496;13.482;2024-01-07T06:25:59;1.53;;;1.40;;
53931;SDS011;39844;52.496;13.482;2024-01-07T06:28:24;1.57;;;1.47;;
53931;SDS011;39844;52.496;13.482;2024-01-07T06:30:49;1.77;;;1.67;;
53931;SDS011;39844;52.496;13.482;2024-01-07T06:33:14;3.60;;;1.87;;
53931;SDS011;39844;52.496;13.482;2024-01-07T06:35:40;1.10;;;1.10;;
53931;SDS011;39844;52.496;13.482;2024-01-07T06:38:05;2.33;;;1.40;;
53931;SDS011;39844;52.496;13.482;2024-01-07T06:40:32;1.37;;;1.37;;
53931;SDS011;39844;52.496;13.482;2024-01-07T06:42:57;1.40;;;1.30;;
53931;SDS011;39844;52.496;13.482;2024-01-07T06:45:22;1.30;;;1.30;;
53931;SDS011;39844;52.496;13.482;2024-01-07T06:47:48;1.63;;;1.57;;
53931;SDS011;39844;52.496;13.482;2024-01-07T06:50:13;1.43;;;1.43;;
53931;SDS011;39844;52.496;13.482;2024-01-07T06:52:38;1.10;;;1.10;;
53931;SDS011;39844;52.496;13.482;2024-01-07T06:55:04;1.37;;;1.37;;
53931;SDS011;39844;52.496;13.482;2024-01-07T06:57:29;1.63;;;1.53;;
53931;SDS011;39844;52.496;13.482;2024-01-07T06:59:55;1.80;;;1.50;;
53931;SDS011;39844;52.496;13.482;2024-01-07T07:02:20;1.20;;;1.20;;
53931;SDS011;39844;52.496;13.482;2024-01-07T07:04:45;1.40;;;1.30;;
53931;SDS011;39844;52.496;13.482;2024-01-07T07:07:11;1.40;;;1.40;;
53931;SDS011;39844;52.496;13.482;2024-01-07T07:09:36;1.20;;;1.20;;
53931;SDS011;39844;52.496;13.482;2024-01-07T07:12:01;1.03;;;1.03;;
53931;SDS011;39844;52.496;13.482;2024-01-07T07:14:27;1.27;;;1.23;;
53931;SDS011;39844;52.496;13.482;2024-01-07T07:16:52;1.00;;;1.00;;
53931;SDS011;39844;52.496;13.482;2024-01-07T07:19:17;1.30;;;1.30;;
53931;SDS011;39844;52.496;13.482;2024-01-07T07:21:43;1.50;;;1.40;;
53931;SDS011;39844;52.496;13.482;2024-01-07T07:24:08;1.80;;;1.37;;
53931;SDS011;39844;52.496;13.482;2024-01-07T07:26:34;1.73;;;1.37;;
53931;SDS011;39844;52.496;13.482;2024-01-07T07:28:59;1.63;;;1.50;;
53931;SDS011;39844;52.496;13.482;2024-01-07T07:31:24;1.57;;;1.47;;
53931;SDS011;39844;52.496;13.482;2024-01-07T07:33:49;1.50;;;1.50;;
53931;SDS011;39844;52.496;13.482;2024-01-07T07:36:15;1.60;;;1.50;;
53931;SDS011;39844;52.496;13.482;2024-01-07T07:38:40;1.10;;;1.10;;
53931;SDS011;39844;52.496;13.482;2024-01-07T07:41:06;1.17;;;1.10;;
53931;SDS011;39844;52.496;13.482;2024-01-07T07:43:31;1.33;;;1.33;;
53931;SDS011;39844;52.496;13.482;2024-01-07T07:45:56;1.47;;;1.47;;
53931;SDS011;39844;52.496;13.482;2024-01-07T07:48:21;1.20;;;1.20;;
53931;SDS011;39844;52.496;13.482;2024-01-07T07:50:47;2.00;;;1.50;;
53931;SDS011;39844;52.496;13.482;2024-01-07T07:53:14;3.37;;;1.33;;
53931;SDS011;39844;52.496;13.482;2024-01-07T07:55:39;1.67;;;1.57;;
53931;SDS011;39844;52.496;13.482;2024-01-07T07:58:04;2.97;;;1.73;;
53931;SDS011;39844;52.496;13.482;2024-01-07T08:00:30;2.17;;;1.40;;
53931;SDS011;39844;52.496;13.482;2024-01-07T08:02:55;2.43;;;1.53;;
53931;SDS011;39844;52.496;13.482;2024-01-07T08:05:20;1.33;;;1.30;;
53931;SDS011;39844;52.496;13.482;2024-01-07T08:07:45;1.63;;;1.20;;
53931;SDS011;39844;52.496;13.482;2024-01-07T08:10:11;1.53;;;1.43;;
53931;SDS011;39844;52.496;13.482;2024-01-07T08:12:36;2.50;;;1.20;;
53931;SDS011;39844;52.496;13.482;2024-01-07T08:15:01;1.17;;;1.17;;
53931;SDS011;39844;52.496;13.482;2024-01-07T08:17:27;1.00;;;1.00;;
53931;SDS011;39844;52.496;13.482;2024-01-07T08:19:52;1.60;;;1.17;;
53931;SDS011;39844;52.496;13.482;2024-01-07T08:22:17;1.20;;;1.20;;
53931;SDS011;39844;52.496;13.482;2024-01-07T08:24:43;1.37;;;1.37;;
53931;SDS011;39844;52.496;13.482;2024-01-07T08:27:08;1.30;;;1.30;;
53931;SDS011;39844;52.496;13.482;2024-01-07T08:29:34;1.13;;;1.13;;
53931;SDS011;39844;52.496;13.482;2024-01-07T08:31:59;1.73;;;1.60;;
53931;SDS011;39844;52.496;13.482;2024-01-07T08:34:24;2.23;;;1.90;;
53931;SDS011;39844;52.496;13.482;2024-01-07T08:36:50;1.17;;;1.17;;
53931;SDS011;39844;52.496;13.482;2024-01-07T08:39:15;1.40;;;1.30;;
53931;SDS011;39844;52.496;13.482;2024-01-07T08:41:41;1.03;;;1.03;;
53931;SDS011;39844;52.496;13.482;2024-01-07T08:44:06;1.20;;;1.20;;
53931;SDS011;39844;52.496;13.482;2024-01-07T08:46:31;1.53;;;1.47;;
53931;SDS011;39844;52.496;13.482;2024-01-07T08:48:57;1.77;;;1.30;;
53931;SDS011;39844;52.496;13.482;2024-01-07T08:51:22;1.27;;;1.27;;
53931;SDS011;39844;52.496;13.482;2024-01-07T08:53:47;1.20;;;1.20;;
53931;SDS011;39844;52.496;13.482;2024-01-07T08:56:12;2.00;;;1.20;;
53931;SDS011;39844;52.496;13.482;2024-01-07T08:58:40;1.53;;;1.43;;
53931;SDS011;39844;52.496;13.482;2024-01-07T09:01:06;1.63;;;1.53;;
53931;SDS011;39844;52.496;13.482;2024-01-07T09:03:31;1.53;;;1.43;;
53931;SDS011;39844;52.496;13.482;2024-01-07T09:05:56;2.43;;;1.40;;
53931;SDS011;39844;52.496;13.482;2024-01-07T09:08:22;1.50;;;1.33;;
53931;SDS011;39844;52.496;13.482;2024-01-07T09:10:47;1.30;;;1.30;;
53931;SDS011;39844;52.496;13.482;2024-01-07T09:13:12;2.10;;;1.83;;
53931;SDS011;39844;52.496;13.482;2024-01-07T09:15:37;1.50;;;1.50;;
53931;SDS011;39844;52.496;13.482;2024-01-07T09:18:03;2.33;;;2.17;;
53931;SDS011;39844;52.496;13.482;2024-01-07T09:20:28;3.17;;;2.53;;
53931;SDS011;39844;52.496;13.482;2024-01-07T09:22:54;1.70;;;1.60;;
53931;SDS011;39844;52.496;13.482;2024-01-07T09:25:19;1.40;;;1.40;;
53931;SDS011;39844;52.496;13.482;2024-01-07T09:27:44;1.67;;;1.67;;
53931;SDS011;39844;52.496;13.482;2024-01-07T09:30:10;1.93;;;1.67;;
53931;SDS011;39844;52.496;13.482;2024-01-07T09:32:36;1.90;;;1.63;;
53931;SDS011;39844;52.496;13.482;2024-01-07T09:35:01;2.00;;;1.90;;
53931;SDS011;39844;52.496;13.482;2024-01-07T09:37:26;2.40;;;1.93;;
53931;SDS011;39844;52.496;13.482;2024-01-07T09:39:51;2.60;;;1.77;;
53931;SDS011;39844;52.496;13.482;2024-01-07T09:42:17;1.40;;;1.40;;
53931;SDS011;39844;52.496;13.482;2024-01-07T09:44:43;1.80;;;1.70;;
53931;SDS011;39844;52.496;13.482;2024-01-07T09:47:15;1.50;;;1.50;;
53931;SDS011;39844;52.496;13.482;2024-01-07T09:49:41;2.13;;;2.03;;
53931;SDS011;39844;52.496;13.482;2024-01-07T09:52:07;4.63;;;2.60;;
53931;SDS011;39844;52.496;13.482;2024-01-07T09:54:35;3.43;;;2.20;;
53931;SDS011;39844;52.496;13.482;2024-01-07T09:57:02;2.57;;;1.97;;
53931;SDS011;39844;52.496;13.482;2024-01-07T09:59:28;1.90;;;1.80;;
53931;SDS011;39844;52.496;13.482;2024-01-07T10:01:55;2.47;;;2.23;;
53931;SDS011;39844;52.496;13.482;2024-01-07T10:04:21;2.80;;;2.07;;
53931;SDS011;39844;52.496;13.482;2024-01-07T10:06:46;2.13;;;2.00;;
53931;SDS011;39844;52.496;13.482;2024-01-07T10:09:12;3.60;;;1.93;;
53931;SDS011;39844;52.496;13.482;2024-01-07T10:11:37;1.80;;;1.70;;
53931;SDS011;39844;52.496;13.482;2024-01-07T10:14:02;3.70;;;2.27;;
53931;SDS011;39844;52.496;13.482;2024-01-07T10:16:28;2.00;;;1.87;;
53931;SDS011;39844;52.496;13.482;2024-01-07T10:18:53;2.20;;;2.07;;
53931;SDS011;39844;52.496;13.482;2024-01-07T10:21:18;3.77;;;2.53;;
53931;SDS011;39844;52.496;13.482;2024-01-07T10:23:44;2.47;;;2.20;;
53931;SDS011;39844;52.496;13.482;2024-01-07T10:26:09;2.00;;;1.90;;
53931;SDS011;39844;52.496;13.482;2024-01-07T10:28:34;2.57;;;2.30;;
53931;SDS011;39844;52.496;13.482;2024-01-07T10:30:59;2.17;;;2.07;;
53931;SDS011;39844;52.496;13.482;2024-01-07T10:33:25;2.40;;;2.20;;
53931;SDS011;39844;52.496;13.482;2024-01-07T10:35:52;2.43;;;2.23;;
53931;SDS011;39844;52.496;13.482;2024-01-07T10:38:21;2.33;;;2.17;;
53931;SDS011;39844;52.496;13.482;2024-01-07T10:40:46;2.20;;;2.00;;
53931;SDS011;39844;52.496;13.482;2024-01-07T10:43:13;2.37;;;2.17;;
53931;SDS011;39844;52.496;13.482;2024-01-07T10:45:40;4.53;;;2.90;;
53931;SDS011;39844;52.496;13.482;2024-01-07T10:48:05;1.97;;;1.87;;
53931;SDS011;39844;52.496;13.482;2024-01-07T10:50:34;2.27;;;2.00;;
53931;SDS011;39844;52.496;13.482;2024-01-07T10:53:03;2.13;;;2.03;;
53931;SDS011;39844;52.496;13.482;2024-01-07T10:55:29;3.80;;;2.07;;
53931;SDS011;39844;52.496;13.482;2024-01-07T10:57:59;7.83;;;2.33;;
53931;SDS011;39844;52.496;13.482;2024-01-07T11:00:25;1.97;;;1.73;;
53931;SDS011;39844;52.496;13.482;2024-01-07T11:02:53;5.57;;;2.47;;
53931;SDS011;39844;52.496;13.482;2024-01-07T11:05:42;2.40;;;1.70;;
53931;SDS011;39844;52.496;13.482;2024-01-07T11:08:21;4.53;;;1.90;;
53931;SDS011;39844;52.496;13.482;2024-01-07T11:10:57;2.00;;;1.90;;
53931;SDS011;39844;52.496;13.482;2024-01-07T11:13:35;2.73;;;2.53;;
53931;SDS011;39844;52.496;13.482;2024-01-07T11:16:02;2.93;;;2.17;;
53931;SDS011;39844;52.496;13.482;2024-01-07T11:18:27;3.43;;;2.93;;
53931;SDS011;39844;52.496;13.482;2024-01-07T11:20:53;3.00;;;2.70;;
53931;SDS011;39844;52.496;13.482;2024-01-07T11:25:56;4.57;;;2.17;;
53931;SDS011;39844;52.496;13.482;2024-01-07T11:28:44;2.17;;;2.00;;
53931;SDS011;39844;52.496;13.482;2024-01-07T11:31:08;2.73;;;2.50;;
53931;SDS011;39844;52.496;13.482;2024-01-07T11:33:33;3.97;;;2.40;;
53931;SDS011;39844;52.496;13.482;2024-01-07T11:35:59;2.60;;;2.40;;
53931;SDS011;39844;52.496;13.482;2024-01-07T11:38:25;4.50;;;2.90;;
53931;SDS011;39844;52.496;13.482;2024-01-07T11:40:50;2.10;;;2.00;;
53931;SDS011;39844;52.496;13.482;2024-01-07T11:43:16;1.93;;;1.83;;
53931;SDS011;39844;52.496;13.482;2024-01-07T11:45:41;2.40;;;2.30;;
53931;SDS011;39844;52.496;13.482;2024-01-07T11:48:07;1.97;;;1.87;;
53931;SDS011;39844;52.496;13.482;2024-01-07T11:50:32;1.90;;;1.80;;
53931;SDS011;39844;52.496;13.482;2024-01-07T11:52:57;3.00;;;2.80;;
53931;SDS011;39844;52.496;13.482;2024-01-07T11:55:23;4.13;;;1.90;;
53931;SDS011;39844;52.496;13.482;2024-01-07T11:57:52;1.90;;;1.77;;
53931;SDS011;39844;52.496;13.482;2024-01-07T12:00:17;2.13;;;2.03;;
53931;SDS011;39844;52.496;13.482;2024-01-07T12:02:43;2.90;;;2.00;;
53931;SDS011;39844;52.496;13.482;2024-01-07T12:05:08;3.17;;;2.23;;
53931;SDS011;39844;52.496;13.482;2024-01-07T12:07:33;3.23;;;2.20;;
53931;SDS011;39844;52.496;13.482;2024-01-07T12:09:59;2.67;;;1.97;;
53931;SDS011;39844;52.496;13.482;2024-01-07T12:12:24;1.97;;;1.80;;
53931;SDS011;39844;52.496;13.482;2024-01-07T12:14:52;2.00;;;1.87;;
53931;SDS011;39844;52.496;13.482;2024-01-07T12:17:18;1.80;;;1.70;;
53931;SDS011;39844;52.496;13.482;2024-01-07T12:19:43;1.90;;;1.80;;
53931;SDS011;39844;52.496;13.482;2024-01-07T12:22:08;2.10;;;2.00;;
53931;SDS011;39844;52.496;13.482;2024-01-07T12:24:34;2.23;;;2.10;;
53931;SDS011;39844;52.496;13.482;2024-01-07T12:27:06;2.00;;;1.90;;
53931;SDS011;39844;52.496;13.482;2024-01-07T12:29:31;1.70;;;1.60;;
53931;SDS011;39844;52.496;13.482;2024-01-07T12:31:57;2.47;;;2.37;;
53931;SDS011;39844;52.496;13.482;2024-01-07T12:34:22;3.23;;;2.13;;
53931;SDS011;39844;52.496;13.482;2024-01-07T12:36:47;2.40;;;1.97;;
53931;SDS011;39844;52.496;13.482;2024-01-07T12:39:13;2.47;;;2.00;;
53931;SDS011;39844;52.496;13.482;2024-01-07T12:41:38;1.90;;;1.80;;
53931;SDS011;39844;52.496;13.482;2024-01-07T12:44:03;1.80;;;1.70;;
53931;SDS011;39844;52.496;13.482;2024-01-07T12:46:29;2.00;;;1.87;;
53931;SDS011;39844;52.496;13.482;2024-01-07T12:48:54;2.63;;;2.43;;
53931;SDS011;39844;52.496;13.482;2024-01-07T12:51:19;1.90;;;1.80;;
53931;SDS011;39844;52.496;13.482;2024-01-07T12:53:45;2.33;;;2.13;;
53931;SDS011;39844;52.496;13.482;2024-01-07T12:56:10;2.90;;;2.50;;
53931;SDS011;39844;52.496;13.482;2024-01-07T12:58:35;3.70;;;2.40;;
53931;SDS011;39844;52.496;13.482;2024-01-07T13:01:00;4.53;;;2.30;;
53931;SDS011;39844;52.496;13.482;2024-01-07T13:03:26;2.00;;;1.90;;
53931;SDS011;39844;52.496;13.482;2024-01-07T13:05:52;2.47;;;2.03;;
53931;SDS011;39844;52.496;13.482;2024-01-07T13:08:17;1.83;;;1.70;;
53931;SDS011;39844;52.496;13.482;2024-01-07T13:10:42;1.80;;;1.70;;
53931;SDS011;39844;52.496;13.482;2024-01-07T13:13:08;2.50;;;2.30;;
53931;SDS011;39844;52.496;13.482;2024-01-07T13:15:33;1.93;;;1.77;;
53931;SDS011;39844;52.496;13.482;2024-01-07T13:17:58;1.77;;;1.67;;
53931;SDS011;39844;52.496;13.482;2024-01-07T13:20:24;1.67;;;1.67;;
53931;SDS011;39844;52.496;13.482;2024-01-07T13:22:49;2.23;;;2.03;;
53931;SDS011;39844;52.496;13.482;2024-01-07T13:25:14;2.60;;;2.40;;
53931;SDS011;39844;52.496;13.482;2024-01-07T13:27:40;2.57;;;2.37;;
53931;SDS011;39844;52.496;13.482;2024-01-07T13:30:06;2.03;;;1.93;;
53931;SDS011;39844;52.496;13.482;2024-01-07T13:32:31;1.90;;;1.80;;
53931;SDS011;39844;52.496;13.482;2024-01-07T13:34:57;2.27;;;2.07;;
53931;SDS011;39844;52.496;13.482;2024-01-07T13:37:22;2.83;;;1.83;;
53931;SDS011;39844;52.496;13.482;2024-01-07T13:39:47;1.73;;;1.67;;
53931;SDS011;39844;52.496;13.482;2024-01-07T13:42:13;3.13;;;1.80;;
53931;SDS011;39844;52.496;13.482;2024-01-07T13:44:38;1.80;;;1.70;;
53931;SDS011;39844;52.496;13.482;2024-01-07T13:47:05;4.00;;;2.13;;
53931;SDS011;39844;52.496;13.482;2024-01-07T13:49:31;1.63;;;1.53;;
53931;SDS011;39844;52.496;13.482;2024-01-07T13:51:56;2.43;;;2.33;;
53931;SDS011;39844;52.496;13.482;2024-01-07T13:54:21;2.00;;;1.90;;
53931;SDS011;39844;52.496;13.482;2024-01-07T13:56:47;2.43;;;2.20;;
53931;SDS011;39844;52.496;13.482;2024-01-07T13:59:12;2.20;;;2.10;;
53931;SDS011;39844;52.496;13.482;2024-01-07T14:01:37;1.93;;;1.83;;
53931;SDS011;39844;52.496;13.482;2024-01-07T14:04:03;2.03;;;1.57;;
53931;SDS011;39844;52.496;13.482;2024-01-07T14:06:28;2.10;;;1.90;;
53931;SDS011;39844;52.496;13.482;2024-01-07T14:08:54;2.20;;;1.90;;
53931;SDS011;39844;52.496;13.482;2024-01-07T14:11:19;2.00;;;1.90;;
53931;SDS011;39844;52.496;13.482;2024-01-07T14:13:45;3.10;;;2.07;;
53931;SDS011;39844;52.496;13.482;2024-01-07T14:16:10;3.00;;;2.00;;
53931;SDS011;39844;52.496;13.482;2024-01-07T14:18:36;2.67;;;2.00;;
53931;SDS011;39844;52.496;13.482;2024-01-07T14:21:01;1.50;;;1.50;;
53931;SDS011;39844;52.496;13.482;2024-01-07T14:23:27;2.13;;;2.00;;
53931;SDS011;39844;52.496;13.482;2024-01-07T14:25:52;1.83;;;1.73;;